createdAt,value
2023-05-23T00:02:16.113Z,99833.00
2023-05-23T00:04:43.859Z,99827.00
2023-05-23T00:07:10.956Z,99832.60
2023-05-23T00:09:38.167Z,99829.00
2023-05-23T00:12:06.486Z,99831.40
2023-05-23T00:14:34.821Z,99830.80
2023-05-23T00:17:01.987Z,99831.20
2023-05-23T00:19:29.279Z,99832.40
2023-05-23T00:21:56.423Z,99831.60
2023-05-23T00:24:24.047Z,99829.80
2023-05-23T00:26:51.130Z,99826.00
2023-05-23T00:29:19.219Z,99829.60
2023-05-23T00:31:46.487Z,99829.80
2023-05-23T00:34:17.551Z,99827.40
2023-05-23T00:36:47.072Z,99827.40
2023-05-23T00:39:18.799Z,99826.20
2023-05-23T00:41:52.183Z,99819.00
2023-05-23T00:44:20.887Z,99814.80
2023-05-23T00:46:52.120Z,99810.40
2023-05-23T00:49:20.016Z,99805.00
2023-05-23T00:51:49.068Z,99804.00
2023-05-23T00:54:20.521Z,99794.20
2023-05-23T00:56:48.363Z,99797.80
2023-05-23T00:59:16.410Z,99791.60
2023-05-23T01:01:46.166Z,99790.60
2023-05-23T01:04:13.961Z,99793.80
2023-05-23T01:06:41.193Z,99790.80
2023-05-23T01:09:12.138Z,99797.00
2023-05-23T01:12:00.835Z,99792.60
2023-05-23T01:15:08.108Z,99796.60
2023-05-23T01:18:12.529Z,99794.40
2023-05-23T01:21:24.488Z,99801.60
2023-05-23T01:24:10.489Z,99804.00
2023-05-23T01:27:06.244Z,99802.80
2023-05-23T01:29:38.371Z,99804.20
2023-05-23T01:32:11.123Z,99808.00
2023-05-23T01:34:40.947Z,99809.00
2023-05-23T01:37:14.036Z,99813.80
2023-05-23T01:39:44.404Z,99810.80
2023-05-23T01:42:12.528Z,99807.20
2023-05-23T01:44:40.226Z,99810.40
2023-05-23T01:47:10.344Z,99814.20
2023-05-23T01:49:38.419Z,99815.00
2023-05-23T01:52:09.608Z,99812.80
2023-05-23T01:54:38.523Z,99818.80
2023-05-23T01:57:06.317Z,99820.60
2023-05-23T01:59:33.563Z,99822.80
2023-05-23T02:02:00.951Z,99816.00
2023-05-23T02:04:28.353Z,99813.60
2023-05-23T02:06:55.493Z,99811.80
2023-05-23T02:09:22.603Z,99807.40
2023-05-23T02:11:49.929Z,99808.00
2023-05-23T02:14:18.182Z,99809.80
2023-05-23T02:16:45.267Z,99807.00
2023-05-23T02:19:12.400Z,99808.60
2023-05-23T02:21:39.476Z,99804.60
2023-05-23T02:24:07.075Z,99807.60
2023-05-23T02:26:34.240Z,99808.00
2023-05-23T02:29:01.467Z,99807.80
2023-05-23T02:31:28.673Z,99810.40
2023-05-23T02:33:55.797Z,99804.80
2023-05-23T02:36:23.113Z,99803.40
2023-05-23T02:38:50.260Z,99800.60
2023-05-23T02:41:17.642Z,99793.80
2023-05-23T02:43:47.065Z,99792.20
2023-05-23T02:46:14.493Z,99792.80
2023-05-23T02:48:41.672Z,99795.80
2023-05-23T02:51:09.012Z,99801.00
2023-05-23T02:53:36.264Z,99796.00
2023-05-23T02:56:07.536Z,99797.00
2023-05-23T02:58:35.512Z,99795.80
2023-05-23T03:01:02.927Z,99794.00
2023-05-23T03:03:32.828Z,99794.00
2023-05-23T03:06:01.720Z,99791.40
2023-05-23T03:08:29.004Z,99792.60
2023-05-23T03:10:56.482Z,99796.20
2023-05-23T03:13:26.662Z,99800.60
2023-05-23T03:15:54.389Z,99802.20
2023-05-23T03:18:21.431Z,99800.00
2023-05-23T03:20:48.521Z,99798.40
2023-05-23T03:23:16.008Z,99802.00
2023-05-23T03:25:45.144Z,99801.40
2023-05-23T03:28:12.164Z,99809.00
2023-05-23T03:30:39.172Z,99809.20
2023-05-23T03:33:08.858Z,99814.20
2023-05-23T03:35:36.021Z,99809.80
2023-05-23T03:38:03.556Z,99813.00
2023-05-23T03:40:30.619Z,99820.20
2023-05-23T03:43:05.592Z,99823.20
2023-05-23T03:45:34.428Z,99825.80
2023-05-23T03:48:03.077Z,99827.60
2023-05-23T03:50:30.732Z,99829.80
2023-05-23T03:52:57.889Z,99830.80
2023-05-23T03:55:25.269Z,99828.20
2023-05-23T03:57:52.402Z,99834.00
2023-05-23T04:00:19.818Z,99833.60
2023-05-23T04:02:51.571Z,99831.80
2023-05-23T04:05:21.217Z,99833.40
2023-05-23T04:07:51.098Z,99838.20
2023-05-23T04:10:18.391Z,99841.00
2023-05-23T04:12:47.356Z,99847.20
2023-05-23T04:15:17.433Z,99847.20
2023-05-23T04:17:59.103Z,99850.80
2023-05-23T04:20:27.754Z,99851.60
2023-05-23T04:22:55.175Z,99849.20
2023-05-23T04:25:23.790Z,99851.40
2023-05-23T04:28:13.654Z,99852.00
2023-05-23T04:30:42.124Z,99858.20
2023-05-23T04:33:09.891Z,99856.80
2023-05-23T04:35:40.273Z,99854.80
2023-05-23T04:38:08.070Z,99855.40
2023-05-23T04:40:35.574Z,99857.40
2023-05-23T04:43:26.221Z,99855.80
2023-05-23T04:46:13.501Z,99857.40
2023-05-23T04:48:44.262Z,99862.20
2023-05-23T04:51:11.618Z,99863.40
2023-05-23T04:53:59.617Z,99870.60
2023-05-23T04:56:29.574Z,99867.60
2023-05-23T04:58:56.998Z,99863.00
2023-05-23T05:01:26.121Z,99868.80
2023-05-23T05:03:53.990Z,99867.00
2023-05-23T05:06:22.793Z,99866.00
2023-05-23T05:08:50.143Z,99863.00
2023-05-23T05:11:17.331Z,99863.00
2023-05-23T05:13:44.552Z,99863.00
2023-05-23T05:16:11.699Z,99861.60
2023-05-23T05:18:39.141Z,99860.20
2023-05-23T05:21:07.640Z,99862.80
2023-05-23T05:23:35.792Z,99863.60
2023-05-23T05:26:04.816Z,99856.20
2023-05-23T05:28:31.928Z,99858.60
2023-05-23T05:30:59.624Z,99859.20
2023-05-23T05:33:27.789Z,99859.40
2023-05-23T05:36:06.817Z,99856.80
2023-05-23T05:38:33.992Z,99863.40
2023-05-23T05:41:01.267Z,99861.60
2023-05-23T05:43:33.511Z,99857.00
2023-05-23T05:46:00.864Z,99853.40
2023-05-23T05:48:28.883Z,99853.00
2023-05-23T05:51:00.654Z,99856.80
2023-05-23T05:53:27.778Z,99859.40
2023-05-23T05:55:55.155Z,99859.80
2023-05-23T05:58:23.110Z,99860.00
2023-05-23T06:01:11.117Z,99865.60
2023-05-23T06:03:38.628Z,99861.20
2023-05-23T06:06:06.457Z,99863.40
2023-05-23T06:08:33.525Z,99860.00
2023-05-23T06:11:00.558Z,99859.00
2023-05-23T06:13:27.594Z,99856.80
2023-05-23T06:15:55.317Z,99857.00
2023-05-23T06:18:22.476Z,99857.80
2023-05-23T06:20:50.554Z,99859.80
2023-05-23T06:23:17.818Z,99858.40
2023-05-23T06:25:45.970Z,99858.40
2023-05-23T06:28:13.262Z,99858.40
2023-05-23T06:30:40.836Z,99856.80
2023-05-23T06:33:08.584Z,99854.20
2023-05-23T06:35:35.939Z,99849.60
2023-05-23T06:38:03.123Z,99850.60
2023-05-23T06:40:30.268Z,99850.80
2023-05-23T06:42:57.643Z,99846.60
2023-05-23T06:45:34.682Z,99848.60
2023-05-23T06:48:01.810Z,99841.20
2023-05-23T06:50:30.079Z,99838.80
2023-05-23T06:52:57.462Z,99837.80
2023-05-23T06:55:24.570Z,99836.20
2023-05-23T06:57:51.716Z,99836.60
2023-05-23T07:00:19.494Z,99836.20
2023-05-23T07:03:07.386Z,99835.40
2023-05-23T07:05:37.378Z,99832.80
2023-05-23T07:08:10.384Z,99831.40
2023-05-23T07:10:41.019Z,99831.20
2023-05-23T07:13:29.336Z,99827.60
2023-05-23T07:15:56.543Z,99824.20
2023-05-23T07:18:24.119Z,99826.00
2023-05-23T07:20:51.721Z,99825.20
2023-05-23T07:23:20.115Z,99828.60
2023-05-23T07:26:01.157Z,99825.00
2023-05-23T07:28:37.128Z,99820.00
2023-05-23T07:31:04.416Z,99817.00
2023-05-23T07:33:34.106Z,99820.00
2023-05-23T07:36:02.803Z,99811.80
2023-05-23T07:38:30.242Z,99811.40
2023-05-23T07:41:09.922Z,99810.60
2023-05-23T07:43:40.247Z,99813.40
2023-05-23T07:46:07.797Z,99807.00
2023-05-23T07:48:35.529Z,99807.40
2023-05-23T07:51:03.791Z,99806.00
2023-05-23T07:53:31.158Z,99805.40
2023-05-23T07:55:58.456Z,99805.00
2023-05-23T07:58:28.204Z,99804.00
2023-05-23T08:00:55.270Z,99804.40
2023-05-23T08:03:43.165Z,99803.00
2023-05-23T08:06:14.910Z,99799.80
2023-05-23T08:08:43.393Z,99803.40
2023-05-23T08:11:10.416Z,99802.80
2023-05-23T08:13:41.325Z,99802.00
2023-05-23T08:16:38.048Z,99803.60
2023-05-23T08:19:16.603Z,99796.60
2023-05-23T08:21:44.242Z,99799.80
2023-05-23T08:24:14.107Z,99803.00
2023-05-23T08:26:42.504Z,99797.60
2023-05-23T08:29:11.406Z,99795.40
2023-05-23T08:31:38.737Z,99798.00
2023-05-23T08:34:07.541Z,99797.80
2023-05-23T08:36:36.319Z,99790.40
2023-05-23T08:39:04.613Z,99797.00
2023-05-23T08:41:36.167Z,99793.80
2023-05-23T08:44:06.163Z,99789.60
2023-05-23T08:47:05.321Z,99792.00
2023-05-23T08:49:45.728Z,99786.20
2023-05-23T08:52:17.255Z,99789.20
2023-05-23T08:54:46.009Z,99785.80
2023-05-23T08:57:13.747Z,99790.40
2023-05-23T08:59:45.402Z,99790.40
2023-05-23T09:02:12.789Z,99787.80
2023-05-23T09:04:40.172Z,99789.60
2023-05-23T09:07:18.601Z,99791.20
2023-05-23T09:09:47.898Z,99785.60
2023-05-23T09:12:15.322Z,99789.00
2023-05-23T09:14:45.560Z,99787.60
2023-05-23T09:17:17.970Z,99786.60
2023-05-23T09:19:46.813Z,99780.20
2023-05-23T09:22:29.249Z,99782.20
2023-05-23T09:25:07.952Z,99777.00
2023-05-23T09:27:36.009Z,99779.80
2023-05-23T09:30:09.925Z,99783.40
2023-05-23T09:32:37.898Z,99783.80
2023-05-23T09:35:07.151Z,99784.00
2023-05-23T09:37:36.152Z,99787.20
2023-05-23T09:40:11.797Z,99783.20
2023-05-23T09:42:44.465Z,99782.80
2023-05-23T09:45:13.139Z,99784.00
2023-05-23T09:48:01.538Z,99782.80
2023-05-23T09:50:33.459Z,99779.00
2023-05-23T09:53:04.222Z,99772.60
2023-05-23T09:55:31.583Z,99772.40
2023-05-23T09:57:59.572Z,99770.20
2023-05-23T10:00:28.086Z,99772.40
2023-05-23T10:03:01.912Z,99776.40
2023-05-23T10:05:44.451Z,99769.00
2023-05-23T10:08:33.671Z,99767.60
2023-05-23T10:11:12.708Z,99760.80
2023-05-23T10:13:49.319Z,99761.00
2023-05-23T10:16:56.413Z,99767.20
2023-05-23T10:19:51.779Z,99767.00
2023-05-23T10:22:20.756Z,99770.60
2023-05-23T10:24:48.386Z,99766.00
2023-05-23T10:27:15.772Z,99766.60
2023-05-23T10:29:44.455Z,99763.80
2023-05-23T10:32:14.412Z,99760.80
2023-05-23T10:34:57.425Z,99764.20
2023-05-23T10:37:49.463Z,99763.40
2023-05-23T10:40:22.755Z,99769.20
2023-05-23T10:43:16.523Z,99756.00
2023-05-23T10:45:43.853Z,99748.20
2023-05-23T10:48:34.675Z,99756.20
2023-05-23T10:51:04.524Z,99755.00
2023-05-23T10:53:35.580Z,99758.00
2023-05-23T10:56:06.513Z,99748.00
2023-05-23T10:58:36.027Z,99753.00
2023-05-23T11:01:07.372Z,99744.60
2023-05-23T11:04:04.555Z,99743.60
2023-05-23T11:06:43.994Z,99738.00
2023-05-23T11:09:18.981Z,99735.60
2023-05-23T11:12:15.846Z,99738.20
2023-05-23T11:14:45.711Z,99739.20
2023-05-23T11:17:12.747Z,99745.80
2023-05-23T11:20:01.320Z,99739.80
2023-05-23T11:22:32.148Z,99748.80
2023-05-23T11:25:01.783Z,99746.20
2023-05-23T11:27:28.960Z,99747.40
2023-05-23T11:30:20.644Z,99736.60
2023-05-23T11:32:53.384Z,99739.20
2023-05-23T11:35:21.082Z,99742.80
2023-05-23T11:37:48.791Z,99738.40
2023-05-23T11:40:25.318Z,99740.80
2023-05-23T11:42:54.316Z,99745.60
2023-05-23T11:45:24.925Z,99744.60
2023-05-23T11:47:52.376Z,99754.20
2023-05-23T11:50:23.886Z,99768.80
2023-05-23T11:52:51.422Z,99764.20
2023-05-23T11:55:22.276Z,99763.80
2023-05-23T11:57:50.984Z,99758.20
2023-05-23T12:00:19.019Z,99758.80
2023-05-23T12:02:49.413Z,99762.60
2023-05-23T12:05:17.381Z,99757.80
2023-05-23T12:07:48.698Z,99741.40
2023-05-23T12:10:17.411Z,99736.00
2023-05-23T12:12:44.993Z,99735.00
2023-05-23T12:15:13.178Z,99734.00
2023-05-23T12:17:48.187Z,99743.20
2023-05-23T12:20:15.761Z,99749.40
2023-05-23T12:22:42.919Z,99751.00
2023-05-23T12:25:10.850Z,99751.80
2023-05-23T12:27:41.227Z,99755.00
2023-05-23T12:30:14.604Z,99754.40
2023-05-23T12:32:46.941Z,99753.00
2023-05-23T12:35:15.587Z,99751.00
2023-05-23T12:37:46.100Z,99767.40
2023-05-23T12:40:17.936Z,99766.60
2023-05-23T12:42:54.992Z,99769.60
2023-05-23T12:45:36.161Z,99773.40
2023-05-23T12:48:04.412Z,99775.40
2023-05-23T12:50:31.807Z,99771.40
2023-05-23T12:52:59.371Z,99777.20
2023-05-23T12:55:26.837Z,99771.80
2023-05-23T12:57:54.498Z,99760.00
2023-05-23T13:00:21.842Z,99759.00
2023-05-23T13:02:49.841Z,99756.60
2023-05-23T13:05:17.453Z,99752.60
2023-05-23T13:07:44.574Z,99753.00
2023-05-23T13:10:11.802Z,99755.20
2023-05-23T13:12:38.907Z,99757.00
2023-05-23T13:15:06.667Z,99756.60
2023-05-23T13:17:33.862Z,99761.20
2023-05-23T13:20:01.693Z,99759.40
2023-05-23T13:22:28.965Z,99759.60
2023-05-23T13:24:56.192Z,99760.80
2023-05-23T13:27:23.367Z,99758.00
2023-05-23T13:29:50.556Z,99762.20
2023-05-23T13:32:18.251Z,99761.20
2023-05-23T13:34:45.403Z,99770.00
2023-05-23T13:37:12.546Z,99772.80
2023-05-23T13:39:39.660Z,99772.20
2023-05-23T13:42:07.561Z,99767.80
2023-05-23T13:44:35.910Z,99770.00
2023-05-23T13:47:13.757Z,99772.60
2023-05-23T13:49:44.190Z,99772.40
2023-05-23T13:52:12.012Z,99771.00
2023-05-23T13:54:39.168Z,99771.00
2023-05-23T13:57:07.125Z,99774.60
2023-05-23T13:59:34.348Z,99772.60
2023-05-23T14:02:01.634Z,99776.80
2023-05-23T14:04:28.823Z,99784.40
2023-05-23T14:06:55.938Z,99781.80
2023-05-23T14:09:23.536Z,99778.40
2023-05-23T14:11:51.921Z,99775.20
2023-05-23T14:14:19.107Z,99783.60
2023-05-23T14:16:46.637Z,99786.40
2023-05-23T14:19:13.944Z,99783.80
2023-05-23T14:21:42.158Z,99782.00
2023-05-23T14:24:10.896Z,99778.20
2023-05-23T14:26:37.944Z,99778.40
2023-05-23T14:29:05.063Z,99772.40
2023-05-23T14:31:32.187Z,99781.40
2023-05-23T14:33:59.375Z,99775.00
2023-05-23T14:36:27.931Z,99771.20
2023-05-23T14:38:55.274Z,99766.80
2023-05-23T14:41:22.576Z,99760.20
2023-05-23T14:43:49.986Z,99761.20
2023-05-23T14:46:18.011Z,99751.60
2023-05-23T14:48:45.183Z,99754.40
2023-05-23T14:51:18.173Z,99754.60
2023-05-23T14:53:54.313Z,99754.20
2023-05-23T14:56:22.767Z,99753.40
2023-05-23T14:58:50.652Z,99754.20
2023-05-23T15:01:17.805Z,99747.80
2023-05-23T15:03:45.584Z,99751.60
2023-05-23T15:06:12.946Z,99752.80
2023-05-23T15:08:40.787Z,99749.80
2023-05-23T15:11:09.195Z,99748.80
2023-05-23T15:13:36.356Z,99742.40
2023-05-23T15:16:06.927Z,99739.80
2023-05-23T15:18:40.888Z,99736.60
2023-05-23T15:21:09.206Z,99733.40
2023-05-23T15:23:36.959Z,99727.40
2023-05-23T15:26:04.077Z,99731.20
2023-05-23T15:28:31.142Z,99727.20
2023-05-23T15:30:59.172Z,99732.60
2023-05-23T15:33:29.844Z,99730.40
2023-05-23T15:35:58.845Z,99722.40
2023-05-23T15:38:26.006Z,99718.00
2023-05-23T15:40:54.999Z,99718.20
2023-05-23T15:43:22.218Z,99717.40
2023-05-23T15:45:50.847Z,99721.00
2023-05-23T15:48:18.971Z,99716.80
2023-05-23T15:50:46.165Z,99715.60
2023-05-23T15:53:13.453Z,99713.40
2023-05-23T15:55:42.659Z,99712.00
2023-05-23T15:58:10.845Z,99713.60
2023-05-23T16:00:37.990Z,99716.80
2023-05-23T16:03:05.582Z,99721.40
2023-05-23T16:05:32.841Z,99717.60
2023-05-23T16:08:00.011Z,99719.00
2023-05-23T16:10:27.361Z,99712.40
2023-05-23T16:12:54.611Z,99711.20
2023-05-23T16:15:21.637Z,99708.60
2023-05-23T16:17:48.837Z,99709.00
2023-05-23T16:20:15.953Z,99712.20
2023-05-23T16:22:43.139Z,99711.60
2023-05-23T16:25:10.557Z,99709.80
2023-05-23T16:27:39.843Z,99709.40
2023-05-23T16:30:07.783Z,99711.80
2023-05-23T16:32:35.286Z,99712.60
2023-05-23T16:35:02.636Z,99708.40
2023-05-23T16:37:29.846Z,99717.00
2023-05-23T16:39:56.947Z,99715.80
2023-05-23T16:42:24.088Z,99718.00
2023-05-23T16:44:51.297Z,99718.60
2023-05-23T16:47:18.514Z,99724.00
2023-05-23T16:49:45.660Z,99726.80
2023-05-23T16:52:13.011Z,99730.60
2023-05-23T16:54:40.328Z,99732.40
2023-05-23T16:57:07.590Z,99734.00
2023-05-23T16:59:34.654Z,99728.20
2023-05-23T17:02:01.878Z,99731.00
2023-05-23T17:04:28.974Z,99733.40
2023-05-23T17:06:56.231Z,99730.80
2023-05-23T17:09:23.367Z,99732.00
2023-05-23T17:11:50.843Z,99726.40
2023-05-23T17:14:18.187Z,99727.40
2023-05-23T17:16:45.284Z,99729.80
2023-05-23T17:19:12.457Z,99731.20
2023-05-23T17:21:39.763Z,99728.80
2023-05-23T17:24:06.940Z,99731.20
2023-05-23T17:26:34.066Z,99731.80
2023-05-23T17:29:01.275Z,99737.20
2023-05-23T17:31:30.557Z,99742.80
2023-05-23T17:33:58.137Z,99741.00
2023-05-23T17:36:25.325Z,99742.00
2023-05-23T17:38:55.194Z,99742.40
2023-05-23T17:41:22.705Z,99742.20
2023-05-23T17:43:50.215Z,99746.60
2023-05-23T17:46:17.434Z,99746.40
2023-05-23T17:48:46.975Z,99750.60
2023-05-23T17:51:15.405Z,99750.60
2023-05-23T17:53:42.862Z,99747.80
2023-05-23T17:56:10.749Z,99746.40
2023-05-23T17:58:38.442Z,99748.20
2023-05-23T18:01:06.392Z,99749.60
2023-05-23T18:03:33.554Z,99747.20
2023-05-23T18:06:00.680Z,99748.60
2023-05-23T18:08:27.789Z,99753.60
2023-05-23T18:10:54.900Z,99756.00
2023-05-23T18:13:21.957Z,99758.80
2023-05-23T18:15:49.211Z,99764.40
2023-05-23T18:18:17.446Z,99766.40
2023-05-23T18:20:44.836Z,99769.20
2023-05-23T18:23:12.213Z,99774.20
2023-05-23T18:25:39.352Z,99779.00
2023-05-23T18:28:06.531Z,99779.60
2023-05-23T18:30:33.852Z,99785.60
2023-05-23T18:33:01.264Z,99782.60
2023-05-23T18:35:28.784Z,99790.80
2023-05-23T18:37:56.225Z,99793.60
2023-05-23T18:40:23.711Z,99799.60
2023-05-23T18:42:51.516Z,99799.80
2023-05-23T18:45:18.629Z,99805.20
2023-05-23T18:47:45.874Z,99801.40
2023-05-23T18:50:13.988Z,99811.00
2023-05-23T18:52:42.330Z,99809.60
2023-05-23T18:55:10.657Z,99814.20
2023-05-23T18:57:37.967Z,99813.00
2023-05-23T19:00:06.848Z,99819.20
2023-05-23T19:02:34.136Z,99823.40
2023-05-23T19:05:02.286Z,99822.20
2023-05-23T19:07:29.469Z,99830.60
2023-05-23T19:09:56.612Z,99831.20
2023-05-23T19:12:24.046Z,99835.60
2023-05-23T19:14:51.590Z,99835.20
2023-05-23T19:17:19.104Z,99837.20
2023-05-23T19:19:46.222Z,99839.00
2023-05-23T19:22:13.396Z,99839.00
2023-05-23T19:24:41.173Z,99838.00
2023-05-23T19:27:08.535Z,99844.60
2023-05-23T19:29:35.698Z,99839.80
2023-05-23T19:32:02.960Z,99844.60
2023-05-23T19:34:30.361Z,99843.20
2023-05-23T19:36:57.519Z,99847.20
2023-05-23T19:39:24.620Z,99846.20
2023-05-23T19:41:51.681Z,99841.80
2023-05-23T19:44:19.284Z,99840.40
2023-05-23T19:46:46.404Z,99842.00
2023-05-23T19:49:14.739Z,99841.40
2023-05-23T19:51:41.824Z,99841.40
2023-05-23T19:54:09.091Z,99841.60
2023-05-23T19:56:36.580Z,99840.60
2023-05-23T19:59:03.752Z,99840.40
2023-05-23T20:01:33.143Z,99842.60
2023-05-23T20:04:00.597Z,99841.00
2023-05-23T20:06:28.118Z,99839.80
2023-05-23T20:08:55.328Z,99841.80
2023-05-23T20:11:22.615Z,99842.20
2023-05-23T20:13:49.773Z,99837.20
2023-05-23T20:16:17.028Z,99841.40
2023-05-23T20:18:44.144Z,99844.00
2023-05-23T20:21:11.557Z,99837.40
2023-05-23T20:23:42.817Z,99841.00
2023-05-23T20:26:10.236Z,99843.20
2023-05-23T20:28:37.328Z,99844.00
2023-05-23T20:31:04.595Z,99852.80
2023-05-23T20:33:33.781Z,99848.20
2023-05-23T20:36:01.147Z,99849.00
2023-05-23T20:38:28.454Z,99851.40
2023-05-23T20:40:55.542Z,99850.80
2023-05-23T20:43:23.270Z,99846.40
2023-05-23T20:45:50.372Z,99846.00
2023-05-23T20:48:17.513Z,99841.00
2023-05-23T20:50:45.077Z,99846.40
2023-05-23T20:53:12.196Z,99844.00
2023-05-23T20:55:39.440Z,99840.00
2023-05-23T20:58:06.713Z,99841.40
2023-05-23T21:00:33.742Z,99841.20
2023-05-23T21:03:01.688Z,99845.20
2023-05-23T21:05:29.014Z,99847.40
2023-05-23T21:07:56.291Z,99852.80
2023-05-23T21:10:23.442Z,99856.60
2023-05-23T21:12:51.207Z,99857.00
2023-05-23T21:15:18.857Z,99856.00
2023-05-23T21:17:46.230Z,99854.80
2023-05-23T21:20:13.472Z,99858.00
2023-05-23T21:22:40.882Z,99861.00
2023-05-23T21:25:08.357Z,99862.00
2023-05-23T21:27:35.434Z,99859.20
2023-05-23T21:30:03.920Z,99864.40
2023-05-23T21:32:31.032Z,99866.40
2023-05-23T21:34:58.452Z,99863.80
2023-05-23T21:37:25.683Z,99864.80
2023-05-23T21:39:52.903Z,99855.60
2023-05-23T21:42:20.447Z,99858.60
2023-05-23T21:44:47.758Z,99859.60
2023-05-23T21:47:15.021Z,99862.80
2023-05-23T21:49:42.280Z,99864.60
2023-05-23T21:52:09.473Z,99863.80
2023-05-23T21:54:36.525Z,99859.60
2023-05-23T21:57:03.982Z,99863.00
2023-05-23T21:59:31.151Z,99860.40
2023-05-23T22:01:58.342Z,99857.80
2023-05-23T22:04:25.512Z,99863.20
2023-05-23T22:06:52.683Z,99863.20
2023-05-23T22:09:19.812Z,99863.00
2023-05-23T22:11:46.890Z,99862.00
2023-05-23T22:14:14.021Z,99855.40
2023-05-23T22:16:41.402Z,99854.00
2023-05-23T22:19:10.023Z,99846.80
2023-05-23T22:21:37.429Z,99850.60
2023-05-23T22:24:04.982Z,99843.40
2023-05-23T22:26:32.042Z,99840.40
2023-05-23T22:28:59.098Z,99838.20
2023-05-23T22:31:28.356Z,99836.40
2023-05-23T22:33:55.975Z,99835.20
2023-05-23T22:36:23.010Z,99832.20
2023-05-23T22:38:50.402Z,99833.00
2023-05-23T22:41:18.038Z,99829.40
2023-05-23T22:43:46.330Z,99827.60
2023-05-23T22:46:13.432Z,99827.00
2023-05-23T22:48:40.462Z,99827.60
2023-05-23T22:51:09.243Z,99826.40
2023-05-23T22:53:36.480Z,99823.80
2023-05-23T22:56:03.785Z,99823.60
2023-05-23T22:58:30.950Z,99827.80
2023-05-23T23:00:58.122Z,99826.80
2023-05-23T23:03:25.898Z,99824.80
2023-05-23T23:05:53.132Z,99830.20
2023-05-23T23:08:21.297Z,99825.60
2023-05-23T23:10:48.520Z,99827.40
2023-05-23T23:13:15.818Z,99827.60
2023-05-23T23:15:43.431Z,99824.40
2023-05-23T23:18:12.862Z,99817.60
2023-05-23T23:20:41.025Z,99815.60
2023-05-23T23:23:08.359Z,99819.80
2023-05-23T23:25:39.719Z,99815.40
2023-05-23T23:28:06.898Z,99807.00
2023-05-23T23:30:33.940Z,99803.60
2023-05-23T23:33:01.118Z,99802.40
2023-05-23T23:35:28.178Z,99798.00
2023-05-23T23:37:55.172Z,99798.60
2023-05-23T23:40:22.300Z,99795.60
2023-05-23T23:42:49.370Z,99792.40
2023-05-23T23:45:16.455Z,99791.00
2023-05-23T23:47:43.600Z,99787.60
2023-05-23T23:50:13.013Z,99790.60
2023-05-23T23:52:40.471Z,99784.40
2023-05-23T23:55:08.009Z,99782.60
2023-05-23T23:57:35.181Z,99776.80
